Time;durP1;ratioP1;P1;durP2;ratioP2;P2;SDS_P1;SDS_P2;PMS_P1;PMS_P2;Temp;Humidity;BMP_temperature;BMP_pressure;BME280_temperature;BME280_humidity;BME280_pressure;Samples;Min_cycle;Max_cycle;Signal;HPM_P1;HPM_P2
2023/03/01 00:02:37;;;;;;;;;;;;;;;0.03;59.50;100185.12;67592;1282;1016449;-59
2023/03/01 00:05:40;;;;;;;73.10;28.90;;;;;;;-0.08;59.24;100181.45;67588;1282;1016068;-59
2023/03/01 00:08:42;;;;;;;87.10;34.70;;;;;;;-0.21;59.44;100180.20;67549;1282;1016496;-60
2023/03/01 00:11:44;;;;;;;86.90;34.90;;;;;;;-0.32;59.47;100176.52;67525;1282;1016503;-59
2023/03/01 00:14:47;;;;;;;83.40;33.10;;;;;;;-0.41;59.96;100167.05;67570;1282;1018824;-59
2023/03/01 00:17:49;;;;;;;82.20;34.90;;;;;;;-0.71;60.89;100169.45;67581;1282;1016290;-60
2023/03/01 00:20:52;;;;;;;115.40;44.00;;;;;;;-0.74;61.42;100172.86;67608;1282;1016507;-59
2023/03/01 00:23:54;;;;;;;105.00;40.50;;;;;;;-0.48;60.80;100174.56;67513;1281;1016350;-59
2023/03/01 00:26:57;;;;;;;133.10;46.20;;;;;;;-0.51;60.46;100170.42;67534;1281;1016411;-59
2023/03/01 00:30:00;;;;;;;115.20;42.70;;;;;;;-0.62;60.60;100160.91;67567;1281;1016213;-59
2023/03/01 00:33:02;;;;;;;99.70;38.20;;;;;;;-0.50;60.32;100157.02;67602;1282;1016510;-60
2023/03/01 00:36:04;;;;;;;97.80;36.10;;;;;;;-0.64;60.56;100158.30;67547;1282;1016399;-59
2023/03/01 00:39:07;;;;;;;89.70;35.00;;;;;;;-0.90;60.69;100154.55;67551;1281;1015988;-59
2023/03/01 00:42:09;;;;;;;91.40;36.20;;;;;;;-0.87;60.76;100153.02;67569;1282;1016202;-59
2023/03/01 00:45:13;;;;;;;98.10;38.30;;;;;;;-1.09;61.35;100151.84;67587;1282;1016360;-59
2023/03/01 00:48:15;;;;;;;88.80;37.40;;;;;;;-1.09;61.38;100145.48;67548;1282;1016305;-59
2023/03/01 00:51:18;;;;;;;89.80;35.40;;;;;;;-1.00;61.05;100142.98;67580;1281;1016495;-61
2023/03/01 00:54:20;;;;;;;82.10;32.50;;;;;;;-0.86;60.59;100137.58;67532;1282;1016335;-61
2023/03/01 00:57:23;;;;;;;90.40;35.00;;;;;;;-0.89;61.18;100132.57;67507;1282;1016392;-60
2023/03/01 01:00:26;;;;;;;86.30;33.80;;;;;;;-0.86;61.38;100130.52;67571;1282;1018156;-59
2023/03/01 01:03:29;;;;;;;91.20;35.00;;;;;;;-0.90;61.52;100122.09;67534;1282;1015665;-59
2023/03/01 01:06:32;;;;;;;93.80;36.80;;;;;;;-0.90;61.67;100124.83;67565;1281;1016098;-60
2023/03/01 01:09:34;;;;;;;89.90;36.40;;;;;;;-0.68;61.37;100124.61;67549;1282;1016499;-61
2023/03/01 01:12:37;;;;;;;85.40;35.00;;;;;;;-0.54;60.45;100126.24;67525;1282;1016734;-60
2023/03/01 01:15:39;;;;;;;90.40;35.40;;;;;;;-0.58;60.79;100127.93;67550;1282;1016421;-60
2023/03/01 01:18:42;;;;;;;95.20;37.70;;;;;;;-0.47;60.15;100130.58;67536;1282;1016473;-59
2023/03/01 01:21:44;;;;;;;96.50;38.80;;;;;;;-0.71;60.15;100128.21;67575;1282;1016471;-62
2023/03/01 01:24:47;;;;;;;;;;;;;;;-0.96;60.71;100129.42;67582;1282;1015895;-59
2023/03/01 01:27:49;;;;;;;90.80;33.80;;;;;;;-1.35;61.43;100133.41;67528;1282;1016422;-59
2023/03/01 01:30:52;;;;;;;99.30;38.10;;;;;;;-1.45;61.68;100132.66;67547;1282;1016348;-59
2023/03/01 01:33:54;;;;;;;90.30;35.40;;;;;;;-1.65;62.01;100128.02;67569;1282;1016461;-59
2023/03/01 01:36:57;;;;;;;104.30;44.80;;;;;;;-1.75;62.81;100122.60;67600;1282;1016381;-59
2023/03/01 01:40:00;;;;;;;91.40;38.90;;;;;;;-1.58;63.01;100116.06;67532;1282;1016305;-59
2023/03/01 01:43:02;;;;;;;89.50;36.40;;;;;;;-1.39;62.83;100112.11;67559;1282;1015970;-59
2023/03/01 01:46:04;;;;;;;96.70;36.70;;;;;;;-1.19;62.66;100106.27;67564;1281;1016267;-59
2023/03/01 01:49:07;;;;;;;89.30;34.80;;;;;;;-1.13;62.16;100107.85;67591;1281;1016457;-59
2023/03/01 01:52:09;;;;;;;90.90;36.80;;;;;;;-1.30;62.00;100111.50;67532;1282;1017380;-60
2023/03/01 01:55:12;;;;;;;104.70;39.30;;;;;;;-1.44;61.82;100111.23;67541;1281;1017605;-59
2023/03/01 01:58:14;;;;;;;83.30;32.60;;;;;;;-1.51;62.22;100113.22;67586;1281;1016245;-59
2023/03/01 02:01:16;;;;;;;96.30;37.70;;;;;;;-1.37;61.76;100116.42;67576;1281;1017422;-59
2023/03/01 02:04:19;;;;;;;119.10;45.30;;;;;;;-1.20;61.67;100116.38;67570;1281;1016386;-60
2023/03/01 02:07:21;;;;;;;;;;;;;;;-1.02;60.68;100115.30;67544;1281;1016480;-59
2023/03/01 02:10:24;;;;;;;104.40;39.90;;;;;;;-1.20;60.62;100113.46;67566;1282;1016293;-59
2023/03/01 02:13:26;;;;;;;116.60;43.40;;;;;;;-1.43;61.86;100114.48;67539;1282;1016494;-59
2023/03/01 02:16:29;;;;;;;104.20;41.20;;;;;;;-1.44;62.29;100116.88;67562;1282;1015893;-59
2023/03/01 02:19:31;;;;;;;102.60;40.20;;;;;;;-1.35;61.43;100115.06;67573;1282;1016334;-61
2023/03/01 02:22:34;;;;;;;;;;;;;;;-1.36;60.71;100112.65;67517;1282;1016125;-60
2023/03/01 02:25:36;;;;;;;101.50;39.60;;;;;;;-1.42;60.66;100111.92;67545;1282;1016447;-60
2023/03/01 02:28:39;;;;;;;;;;;;;;;-1.43;60.68;100104.19;67548;1282;1016388;-59
2023/03/01 02:31:44;;;;;;;114.60;43.60;;;;;;;-1.33;60.81;100105.46;67570;1282;1016734;-59
2023/03/01 02:34:47;;;;;;;112.00;44.20;;;;;;;-1.39;60.64;100108.86;67564;1282;1016347;-59
2023/03/01 02:37:49;;;;;;;102.20;41.90;;;;;;;-1.39;60.87;100098.56;67532;1282;1016161;-59
2023/03/01 02:40:52;;;;;;;103.10;41.30;;;;;;;-1.39;60.94;100092.38;67548;1281;1016558;-59
2023/03/01 02:43:54;;;;;;;104.10;40.70;;;;;;;-1.37;61.13;100090.01;67537;1282;1016304;-60
2023/03/01 02:46:57;;;;;;;107.00;42.10;;;;;;;-1.36;61.16;100084.00;67529;1282;1016432;-59
2023/03/01 02:50:00;;;;;;;111.90;41.20;;;;;;;-1.31;60.72;100085.59;67570;1282;1016616;-59
2023/03/01 02:53:02;;;;;;;107.80;41.40;;;;;;;-1.39;60.71;100092.20;67520;1282;1016390;-59
2023/03/01 02:56:05;;;;;;;;;;;;;;;-1.61;60.97;100096.66;67535;1282;1016425;-59
2023/03/01 02:59:07;;;;;;;90.90;32.20;;;;;;;-1.73;61.99;100100.84;67565;1282;1016215;-59
2023/03/01 03:02:10;;;;;;;82.90;32.40;;;;;;;-1.76;61.88;100102.52;67582;1281;1016317;-59
2023/03/01 03:05:12;;;;;;;110.80;39.90;;;;;;;-1.78;61.22;100104.39;67548;1281;1016397;-59
2023/03/01 03:08:23;;;;;;;114.60;40.10;;;;;;;-1.82;61.29;100109.16;67617;1281;1019220;-59
2023/03/01 03:11:26;;;;;;;109.70;41.90;;;;;;;-1.88;61.52;100106.88;67600;1281;1018205;-59
2023/03/01 03:14:28;;;;;;;133.70;47.70;;;;;;;-1.94;62.04;100106.13;67574;1281;1016449;-60
2023/03/01 03:17:31;;;;;;;;;;;;;;;-1.82;62.04;100101.11;67543;1281;1016621;-59
2023/03/01 03:20:33;;;;;;;78.80;31.50;;;;;;;-1.52;61.22;100104.45;67509;1281;1016004;-60
2023/03/01 03:23:35;;;;;;;82.10;33.10;;;;;;;-1.28;60.64;100104.32;67560;1282;1015860;-59
2023/03/01 03:26:38;;;;;;;73.70;29.20;;;;;;;-1.38;60.19;100109.71;67556;1281;1016990;-60
2023/03/01 03:29:41;;;;;;;77.50;30.50;;;;;;;-1.45;60.34;100106.91;67522;1281;1016383;-59
2023/03/01 03:32:51;;;;;;;76.70;28.80;;;;;;;-1.60;60.68;100109.02;67515;1282;1016416;-59
2023/03/01 03:35:54;;;;;;;78.20;32.00;;;;;;;-1.78;60.93;100114.33;67597;1281;1016393;-59
2023/03/01 03:38:57;;;;;;;71.80;31.30;;;;;;;-1.81;61.65;100113.29;67522;1281;1016271;-60
2023/03/01 03:41:59;;;;;;;73.00;29.70;;;;;;;-1.93;61.97;100108.70;67546;1281;1016480;-59
2023/03/01 03:45:01;;;;;;;81.20;32.20;;;;;;;-1.72;62.22;100105.64;67586;1281;1016479;-59
2023/03/01 03:48:04;;;;;;;76.20;31.90;;;;;;;-1.43;60.67;100096.64;67566;1281;1016400;-59
2023/03/01 03:51:07;;;;;;;79.80;32.20;;;;;;;-1.51;60.33;100091.77;67546;1281;1017003;-60
2023/03/01 03:54:10;;;;;;;92.80;34.90;;;;;;;-1.62;60.51;100088.23;67521;1281;1016529;-59
2023/03/01 03:57:13;;;;;;;98.50;37.70;;;;;;;-1.78;60.72;100082.09;67565;1281;1019870;-59
2023/03/01 04:00:15;;;;;;;98.00;37.80;;;;;;;-1.80;60.94;100076.42;67553;1281;1016316;-59
2023/03/01 04:03:18;;;;;;;90.60;37.70;;;;;;;-1.76;60.72;100079.55;67576;1281;1016106;-59
2023/03/01 04:06:20;;;;;;;98.10;37.90;;;;;;;-1.81;60.73;100081.39;67619;1281;1016633;-59
2023/03/01 04:09:23;;;;;;;89.00;33.80;;;;;;;-1.93;60.79;100085.73;67554;1281;1016345;-59
2023/03/01 04:12:25;;;;;;;89.50;34.10;;;;;;;-2.05;61.06;100094.52;67557;1281;1016140;-59
2023/03/01 04:15:28;;;;;;;76.80;30.20;;;;;;;-2.12;61.37;100094.11;67537;1281;1016357;-59
2023/03/01 04:18:30;;;;;;;82.80;31.80;;;;;;;-2.18;61.08;100091.81;67609;1281;1016407;-59
2023/03/01 04:21:33;;;;;;;76.90;31.50;;;;;;;-2.28;61.33;100086.39;67570;1281;1016557;-60
2023/03/01 04:24:35;;;;;;;77.60;31.20;;;;;;;-2.23;61.11;100087.30;67544;1282;1016511;-60
2023/03/01 04:27:38;;;;;;;;;;;;;;;-2.17;60.85;100086.16;67562;1282;1018671;-59
2023/03/01 04:30:41;;;;;;;64.40;24.10;;;;;;;-2.13;60.70;100092.38;67593;1281;1016658;-59
2023/03/01 04:33:43;;;;;;;77.00;31.30;;;;;;;-2.16;60.50;100092.17;67581;1259;1016505;-59
2023/03/01 04:36:46;;;;;;;81.90;33.40;;;;;;;-2.24;60.80;100088.49;67550;1282;1016517;-59
2023/03/01 04:39:48;;;;;;;75.30;32.20;;;;;;;-2.22;60.92;100089.20;67583;1281;1019286;-59
2023/03/01 04:42:51;;;;;;;76.00;33.40;;;;;;;-2.16;60.91;100090.96;67617;1281;1016316;-60
2023/03/01 04:45:53;;;;;;;73.40;28.90;;;;;;;-1.94;60.75;100086.58;67540;1282;1016389;-59
2023/03/01 04:48:56;;;;;;;77.70;30.30;;;;;;;-1.72;59.63;100090.56;67544;1282;1016172;-59
2023/03/01 04:52:01;;;;;;;70.00;29.20;;;;;;;-1.86;59.65;100090.42;67594;1282;1016687;-59
2023/03/01 04:55:04;;;;;;;78.80;28.30;;;;;;;-1.94;59.53;100090.16;67571;1281;1016442;-59
2023/03/01 04:58:06;;;;;;;75.30;29.60;;;;;;;-1.83;59.83;100092.68;67589;1282;1016439;-59
2023/03/01 05:01:15;;;;;;;80.10;29.70;;;;;;;-1.85;59.70;100087.86;67609;1282;1016786;-59
2023/03/01 05:04:17;;;;;;;68.60;28.70;;;;;;;-2.12;59.76;100086.21;67583;1282;1016226;-59
2023/03/01 05:07:20;;;;;;;74.20;31.00;;;;;;;-2.24;60.38;100085.58;67559;1281;1016387;-59
2023/03/01 05:10:22;;;;;;;80.90;29.30;;;;;;;-2.18;60.32;100084.27;67546;1281;1016489;-59
2023/03/01 05:13:24;;;;;;;94.50;37.00;;;;;;;-2.03;60.05;100077.56;67588;1282;1016389;-59
2023/03/01 05:16:27;;;;;;;109.90;40.90;;;;;;;-2.05;59.78;100073.78;67580;1282;1016294;-59
2023/03/01 05:19:30;;;;;;;104.80;38.60;;;;;;;-2.09;59.80;100077.51;67559;1282;1017002;-59
2023/03/01 05:22:34;;;;;;;96.60;35.60;;;;;;;-2.09;59.80;100070.33;67601;1282;1016526;-59
2023/03/01 05:25:39;;;;;;;95.10;37.20;;;;;;;-2.02;59.89;100070.38;67597;1282;1016151;-59
2023/03/01 05:28:42;;;;;;;94.50;38.40;;;;;;;-1.99;59.64;100070.92;67564;1282;1016027;-59
2023/03/01 05:31:44;;;;;;;83.60;34.00;;;;;;;-2.14;59.60;100077.46;67453;1282;1016478;-59
2023/03/01 05:34:47;;;;;;;88.80;34.60;;;;;;;-2.33;59.82;100077.95;67559;1282;1016412;-59
2023/03/01 05:37:49;;;;;;;90.60;35.10;;;;;;;-2.37;60.23;100074.29;67549;1281;1016528;-59
2023/03/01 05:40:52;;;;;;;92.50;39.30;;;;;;;-2.24;60.28;100082.49;67518;1281;1018709;-59
2023/03/01 05:43:54;;;;;;;89.50;38.00;;;;;;;-2.26;60.12;100077.49;67533;1281;1016412;-59
2023/03/01 05:46:57;;;;;;;;;;;;;;;-2.21;59.96;100076.19;67586;1282;1016117;-59
2023/03/01 05:50:00;;;;;;;104.30;39.20;;;;;;;-1.99;60.08;100066.80;67570;1282;1016517;-59
2023/03/01 05:53:02;;;;;;;108.70;42.80;;;;;;;-1.88;59.99;100070.02;67521;1281;1019101;-59
2023/03/01 05:56:05;;;;;;;106.10;40.60;;;;;;;-1.98;59.97;100059.62;67571;1282;1016668;-60
2023/03/01 05:59:08;;;;;;;105.30;38.90;;;;;;;-1.88;59.89;100053.20;67543;1282;1017619;-59
2023/03/01 06:02:10;;;;;;;102.30;39.70;;;;;;;-1.91;60.01;100060.20;67536;1282;1016413;-59
2023/03/01 06:05:13;;;;;;;106.00;41.80;;;;;;;-1.85;60.41;100058.38;67572;1282;1016145;-59
2023/03/01 06:08:15;;;;;;;111.60;44.50;;;;;;;-1.75;60.42;100061.38;67593;1282;1016458;-59
2023/03/01 06:11:17;;;;;;;148.90;55.30;;;;;;;-1.55;60.63;100062.75;67580;1281;1017208;-60
2023/03/01 06:14:20;;;;;;;132.00;50.00;;;;;;;-1.53;60.47;100063.63;67523;1282;1016417;-60
2023/03/01 06:17:23;;;;;;;141.80;53.30;;;;;;;-1.37;60.84;100058.95;67564;1281;1016435;-59
2023/03/01 06:20:25;;;;;;;146.50;59.40;;;;;;;-1.14;60.52;100057.54;67558;1282;1016262;-59
2023/03/01 06:23:28;;;;;;;;;;;;;;;-0.91;60.63;100060.95;67585;1282;1016441;-59
2023/03/01 06:26:30;;;;;;;134.80;47.70;;;;;;;-0.81;60.81;100066.14;67551;1282;1016445;-60
2023/03/01 06:29:33;;;;;;;;;;;;;;;-0.51;60.65;100065.25;67556;1281;1017391;-59
2023/03/01 06:32:35;;;;;;;148.60;51.90;;;;;;;-0.31;60.17;100074.96;67594;1281;1018684;-60
2023/03/01 06:35:38;;;;;;;170.20;56.30;;;;;;;-0.08;60.44;100071.92;67619;1282;1016387;-59
2023/03/01 06:38:41;;;;;;;155.60;57.30;;;;;;;0.25;60.31;100071.79;67557;1282;1016362;-59
2023/03/01 06:41:43;;;;;;;159.80;55.20;;;;;;;0.36;59.70;100074.39;67587;1282;1016372;-59
2023/03/01 06:44:46;;;;;;;152.10;57.30;;;;;;;0.22;59.95;100077.30;67568;1282;1018731;-59
2023/03/01 06:47:49;;;;;;;150.00;58.60;;;;;;;0.32;60.60;100078.34;67506;1282;1016377;-59
2023/03/01 06:50:51;;;;;;;155.40;60.80;;;;;;;0.75;60.50;100073.70;67589;1282;1016887;-59
2023/03/01 06:53:54;;;;;;;154.10;60.90;;;;;;;1.18;60.75;100071.52;67572;1282;1016211;-59
2023/03/01 06:56:56;;;;;;;137.30;58.40;;;;;;;1.68;59.78;100075.67;67513;1282;1016469;-60
2023/03/01 06:59:59;;;;;;;144.00;60.60;;;;;;;1.99;59.13;100072.40;67527;1282;1016448;-59
2023/03/01 07:03:02;;;;;;;160.30;63.60;;;;;;;2.16;58.62;100063.67;67574;1282;1016287;-60
2023/03/01 07:06:04;;;;;;;126.10;56.00;;;;;;;2.39;59.39;100059.88;67527;1282;1016476;-60
2023/03/01 07:09:07;;;;;;;140.90;63.10;;;;;;;2.58;59.47;100057.13;67541;1282;1016760;-60
2023/03/01 07:12:09;;;;;;;144.70;66.80;;;;;;;2.81;59.73;100055.03;67564;1281;1016473;-59
2023/03/01 07:15:12;;;;;;;156.30;71.70;;;;;;;2.92;59.57;100040.23;67592;1281;1016540;-59
2023/03/01 07:18:14;;;;;;;153.60;69.20;;;;;;;3.11;60.13;100035.02;67571;1282;1016942;-59
2023/03/01 07:21:17;;;;;;;170.70;79.70;;;;;;;3.12;59.22;100032.05;67547;1282;1018281;-59
2023/03/01 07:24:19;;;;;;;176.10;83.70;;;;;;;3.04;59.42;100028.72;67572;1281;1016500;-59
2023/03/01 07:27:22;;;;;;;204.40;89.80;;;;;;;3.12;60.16;100020.84;67624;1282;1016494;-59
2023/03/01 07:30:25;;;;;;;296.30;120.00;;;;;;;3.24;60.20;100014.13;67599;1282;1016352;-59
2023/03/01 07:33:28;;;;;;;209.40;93.10;;;;;;;3.30;60.05;100015.95;67592;1281;1016301;-59
2023/03/01 07:36:30;;;;;;;140.20;65.30;;;;;;;3.43;60.79;100019.08;67565;1282;1016286;-60
2023/03/01 07:39:33;;;;;;;104.20;48.50;;;;;;;3.59;60.22;100011.77;67516;1281;1016259;-59
2023/03/01 07:42:36;;;;;;;95.40;47.10;;;;;;;3.58;60.40;100020.96;67506;1282;1016414;-59
2023/03/01 07:45:39;;;;;;;144.50;66.20;;;;;;;3.87;60.94;100029.20;67589;1282;1016468;-59
2023/03/01 07:48:41;;;;;;;133.00;64.00;;;;;;;4.33;60.20;100026.45;67548;1282;1016385;-59
2023/03/01 07:51:43;;;;;;;139.50;65.80;;;;;;;4.83;59.78;100027.14;67560;1281;1019217;-59
2023/03/01 07:54:46;;;;;;;120.30;58.60;;;;;;;5.23;59.70;100030.73;67524;1281;1016671;-59
2023/03/01 07:57:48;;;;;;;115.00;53.20;;;;;;;5.40;58.58;100031.78;67600;1281;1016544;-59
2023/03/01 08:00:51;;;;;;;110.60;52.30;;;;;;;5.46;58.55;100034.77;67571;1282;1016200;-58
2023/03/01 08:03:53;;;;;;;107.30;48.30;;;;;;;5.55;57.80;100033.02;67551;1281;1015926;-59
2023/03/01 08:06:55;;;;;;;94.30;43.70;;;;;;;5.76;57.73;100033.27;67536;1281;1016242;-58
2023/03/01 08:09:58;;;;;;;84.80;38.80;;;;;;;5.90;56.83;100035.91;67533;1281;1016560;-59
2023/03/01 08:13:00;;;;;;;78.20;38.60;;;;;;;5.87;56.42;100030.23;67574;1281;1016830;-59
2023/03/01 08:16:03;;;;;;;81.10;37.40;;;;;;;5.87;56.80;100022.80;67589;1281;1016431;-59
2023/03/01 08:19:05;;;;;;;;;;;;;;;6.19;57.05;100020.34;67567;1281;1016093;-58
2023/03/01 08:22:08;;;;;;;54.60;24.00;;;;;;;6.17;56.42;100023.70;67559;1281;1018284;-59
2023/03/01 08:25:10;;;;;;;50.20;22.20;;;;;;;6.20;56.30;100016.67;67539;1281;1017174;-59
2023/03/01 08:28:13;;;;;;;47.60;22.90;;;;;;;6.21;55.83;100018.02;67609;1281;1016050;-59
2023/03/01 08:31:15;;;;;;;51.40;23.40;;;;;;;6.25;55.85;100012.04;67572;1281;1016187;-59
2023/03/01 08:34:17;;;;;;;55.90;24.60;;;;;;;6.44;55.82;100010.35;67574;1282;1016480;-58
2023/03/01 08:37:20;;;;;;;51.60;23.50;;;;;;;6.58;55.37;100012.42;67562;1281;1018801;-59
2023/03/01 08:40:22;;;;;;;50.40;24.80;;;;;;;6.83;55.81;100011.42;67549;1282;1016567;-59
2023/03/01 08:43:25;;;;;;;53.80;24.60;;;;;;;7.28;54.67;100012.47;67583;1281;1016332;-59
2023/03/01 08:46:27;;;;;;;50.10;22.30;;;;;;;7.61;54.07;100017.61;67583;1281;1016316;-59
2023/03/01 08:49:29;;;;;;;42.90;20.60;;;;;;;7.61;52.83;100016.41;67609;1281;1016020;-59
2023/03/01 08:52:32;;;;;;;41.30;19.80;;;;;;;7.76;51.82;100016.80;67556;1281;1016283;-60
2023/03/01 08:55:35;;;;;;;;;;;;;;;7.76;51.74;100018.02;67553;1282;1016439;-59
2023/03/01 08:58:37;;;;;;;43.90;19.40;;;;;;;7.77;50.00;100018.86;67585;1282;1016550;-59
2023/03/01 09:01:42;;;;;;;43.50;19.00;;;;;;;7.57;49.76;100019.11;67612;1282;1018211;-59
2023/03/01 09:04:45;;;;;;;46.20;20.40;;;;;;;7.34;50.29;100015.94;67607;1282;1016043;-60
2023/03/01 09:07:48;;;;;;;46.50;21.50;;;;;;;7.26;50.78;100017.75;67595;1281;1016467;-59
2023/03/01 09:10:50;;;;;;;45.60;22.20;;;;;;;7.29;51.36;100019.58;67590;1282;1016400;-59
2023/03/01 09:13:53;;;;;;;49.00;23.60;;;;;;;7.57;52.09;100020.16;67560;1282;1016435;-59
2023/03/01 09:16:55;;;;;;;49.50;23.80;;;;;;;7.74;51.89;100018.09;67545;1282;1016456;-59
2023/03/01 09:19:59;;;;;;;45.00;20.80;;;;;;;7.90;50.85;100021.61;67614;1281;1016471;-59
2023/03/01 09:23:02;;;;;;;44.60;20.50;;;;;;;7.81;50.39;100029.53;67584;1281;1016019;-59
2023/03/01 09:26:04;;;;;;;44.70;20.40;;;;;;;7.85;50.78;100017.77;67615;1282;1016244;-59
2023/03/01 09:29:09;;;;;;;36.90;17.80;;;;;;;8.01;49.99;100012.91;67523;1281;1018206;-59
2023/03/01 09:32:11;;;;;;;43.40;18.90;;;;;;;8.08;49.06;100011.10;67553;1282;1016419;-59
2023/03/01 09:35:14;;;;;;;41.80;18.90;;;;;;;8.23;49.27;100008.89;67584;1282;1018080;-60
2023/03/01 09:38:16;;;;;;;41.60;18.70;;;;;;;8.52;48.19;100003.95;67569;1282;1016246;-59
2023/03/01 09:41:20;;;;;;;40.50;18.30;;;;;;;8.18;47.51;99998.61;67569;1282;1017032;-59
2023/03/01 09:44:22;;;;;;;41.60;19.40;;;;;;;8.17;46.92;99991.67;67596;1282;1016888;-59
2023/03/01 09:47:26;;;;;;;41.80;18.30;;;;;;;8.29;47.87;99996.34;67579;1281;1016947;-59
2023/03/01 09:50:28;;;;;;;41.10;19.30;;;;;;;8.49;46.65;99999.34;67547;1282;1016123;-60
2023/03/01 09:53:54;;;;;;;39.60;18.80;;;;;;;8.61;46.87;99991.45;67546;1282;1016411;-59
2023/03/01 09:56:59;;;;;;;38.50;18.00;;;;;;;8.52;46.27;99991.26;67551;1282;1016456;-59
2023/03/01 10:00:01;;;;;;;41.40;19.20;;;;;;;8.60;45.99;99993.92;67546;1282;1016063;-60
2023/03/01 10:03:03;;;;;;;39.10;17.60;;;;;;;8.73;46.08;99990.52;67619;1281;1016293;-60
2023/03/01 10:06:06;;;;;;;38.10;17.00;;;;;;;8.85;44.91;99987.48;67592;1259;1016457;-60
2023/03/01 10:09:08;;;;;;;35.10;15.50;;;;;;;9.02;44.69;99987.23;67550;1282;1016251;-60
2023/03/01 10:12:11;;;;;;;34.90;14.20;;;;;;;9.38;45.18;99985.90;67543;1282;1016480;-59
2023/03/01 10:15:13;;;;;;;35.50;15.40;;;;;;;9.60;43.85;99986.14;67536;1282;1016502;-60
2023/03/01 10:18:16;;;;;;;35.00;16.50;;;;;;;9.76;43.71;99980.81;67583;1282;1016467;-60
2023/03/01 10:21:19;;;;;;;37.00;17.00;;;;;;;9.85;43.31;99979.42;67555;1282;1015880;-60
2023/03/01 10:24:22;;;;;;;42.10;19.20;;;;;;;10.02;44.67;99974.73;67557;1282;1016366;-59
2023/03/01 10:27:24;;;;;;;40.10;19.20;;;;;;;10.32;43.79;99975.27;67547;1282;1016497;-59
2023/03/01 10:30:27;;;;;;;41.90;20.00;;;;;;;10.22;43.30;99967.09;67514;1282;1016503;-59
2023/03/01 10:33:29;;;;;;;;;;;;;;;10.37;43.98;99962.48;67585;1282;1016518;-60
2023/03/01 10:36:32;;;;;;;38.20;17.40;;;;;;;10.42;43.08;99965.25;67576;1282;1016050;-60
2023/03/01 10:39:34;;;;;;;39.10;18.20;;;;;;;10.36;42.64;99964.77;67552;1282;1016512;-60
2023/03/01 10:42:37;;;;;;;35.70;17.10;;;;;;;10.43;42.70;99959.26;67543;1282;1016448;-60
2023/03/01 10:45:39;;;;;;;31.20;14.60;;;;;;;10.51;40.68;99954.37;67542;1282;1016389;-60
2023/03/01 10:48:42;;;;;;;36.20;17.40;;;;;;;10.66;40.44;99950.41;67579;1282;1016463;-60
2023/03/01 10:51:44;;;;;;;35.70;16.20;;;;;;;10.42;40.82;99947.06;67574;1282;1016135;-60
2023/03/01 10:54:47;;;;;;;36.80;17.20;;;;;;;10.21;40.17;99951.23;67594;1281;1016217;-60
2023/03/01 10:57:50;;;;;;;;;;;;;;;10.24;41.04;99946.04;67569;1282;1016041;-60
2023/03/01 11:00:52;;;;;;;35.40;15.10;;;;;;;10.38;40.70;99943.04;67595;1281;1016384;-60
2023/03/01 11:03:55;;;;;;;35.30;15.00;;;;;;;10.60;40.79;99939.65;67598;1282;1016495;-60
2023/03/01 11:06:59;;;;;;;33.70;14.90;;;;;;;10.72;40.13;99942.80;67562;1282;1016432;-60
2023/03/01 11:10:02;;;;;;;31.70;14.10;;;;;;;10.93;39.32;99939.25;67570;1282;1016223;-60
2023/03/01 11:13:04;;;;;;;35.50;16.40;;;;;;;10.89;38.95;99936.97;67593;1282;1017948;-60
2023/03/01 11:16:07;;;;;;;34.70;16.60;;;;;;;11.10;40.03;99931.82;67575;1282;1016508;-60
2023/03/01 11:19:09;;;;;;;33.30;15.20;;;;;;;11.48;39.59;99929.58;67568;1282;1017009;-59
2023/03/01 11:22:14;;;;;;;34.80;15.40;;;;;;;11.37;37.40;99921.66;67567;1282;1016411;-60
2023/03/01 11:25:17;;;;;;;32.70;14.90;;;;;;;11.18;38.33;99918.53;67598;1282;1016030;-60
2023/03/01 11:28:19;;;;;;;33.10;14.80;;;;;;;11.32;38.01;99915.08;67574;1281;1016366;-60
2023/03/01 11:31:21;;;;;;;31.20;13.30;;;;;;;11.62;37.97;99915.23;67572;1281;1016479;-60
2023/03/01 11:34:24;;;;;;;30.90;14.20;;;;;;;11.52;36.35;99913.81;67555;1282;1016402;-60
2023/03/01 11:37:26;;;;;;;33.90;15.60;;;;;;;11.44;37.59;99914.15;67591;1282;1016497;-60
2023/03/01 11:40:29;;;;;;;39.20;16.40;;;;;;;11.69;37.92;99914.23;67605;1281;1016519;-60
2023/03/01 11:43:31;;;;;;;32.00;14.60;;;;;;;12.19;38.93;99903.56;67540;1282;1016450;-60
2023/03/01 11:46:34;;;;;;;34.00;15.00;;;;;;;12.57;36.76;99900.95;67570;1281;1018200;-60
2023/03/01 11:49:36;;;;;;;31.10;13.90;;;;;;;12.74;36.48;99892.66;67590;1282;1016482;-60
2023/03/01 11:52:39;;;;;;;33.90;14.20;;;;;;;12.78;35.80;99887.87;67601;1282;1016206;-60
2023/03/01 11:55:41;;;;;;;32.20;13.80;;;;;;;12.59;34.78;99885.58;67594;1282;1016514;-60
2023/03/01 11:58:44;;;;;;;32.50;15.30;;;;;;;12.23;34.06;99885.28;67527;1282;1016981;-60
2023/03/01 12:01:46;;;;;;;32.50;14.80;;;;;;;12.17;35.56;99883.31;67556;1281;1016098;-60
2023/03/01 12:04:48;;;;;;;32.90;15.70;;;;;;;12.32;35.00;99880.98;67550;1282;1017015;-61
2023/03/01 12:07:52;;;;;;;32.20;14.80;;;;;;;12.44;35.64;99872.62;67611;1282;1016398;-60
2023/03/01 12:10:56;;;;;;;34.90;16.20;;;;;;;12.67;35.74;99875.14;67591;1282;1016304;-60
2023/03/01 12:13:59;;;;;;;32.00;14.60;;;;;;;12.65;35.62;99868.55;67594;1282;1016348;-60
2023/03/01 12:17:01;;;;;;;33.90;16.00;;;;;;;12.78;34.59;99865.59;67598;1282;1016387;-60
2023/03/01 12:20:06;;;;;;;34.70;15.80;;;;;;;12.72;35.03;99863.45;67550;1282;1016368;-60
2023/03/01 12:23:09;;;;;;;33.00;16.50;;;;;;;12.66;34.28;99865.85;67615;1282;1016261;-60
2023/03/01 12:26:12;;;;;;;34.70;17.10;;;;;;;12.72;34.69;99853.30;67582;1282;1015997;-60
2023/03/01 12:29:25;;;;;;;;;;;;;;;;;;;;;
2023/03/01 12:32:38;;;;;;;35.50;16.40;;;;;;;12.77;33.81;99855.98;67557;1282;1016312;-60
2023/03/01 12:35:40;;;;;;;39.00;19.00;;;;;;;12.78;34.74;99848.20;67561;1282;1016867;-60
2023/03/01 12:38:43;;;;;;;39.30;18.70;;;;;;;13.03;34.76;99840.87;67544;1281;1016314;-60
2023/03/01 12:41:45;;;;;;;36.30;17.50;;;;;;;13.14;33.95;99836.23;67586;1282;1016463;-60
2023/03/01 12:44:47;;;;;;;35.70;17.90;;;;;;;13.17;34.27;99827.50;67609;1282;1016532;-60
2023/03/01 12:47:50;;;;;;;34.50;17.50;;;;;;;13.29;33.90;99821.55;67569;1282;1018823;-60
2023/03/01 12:50:54;;;;;;;;;;;;;;;13.41;33.77;99826.88;67537;1282;1016452;-60
2023/03/01 12:53:56;;;;;;;35.30;15.80;;;;;;;13.16;32.19;99824.19;67529;1282;1016340;-60
2023/03/01 12:56:58;;;;;;;35.50;16.00;;;;;;;12.66;32.85;99825.16;67561;1282;1016592;-60
2023/03/01 13:00:02;;;;;;;34.20;16.30;;;;;;;12.60;33.18;99827.60;67528;1282;1016086;-60
2023/03/01 13:03:05;;;;;;;35.30;15.40;;;;;;;12.29;32.45;99828.72;67560;1282;1016586;-60
2023/03/01 13:06:07;;;;;;;;;;;;;;;12.24;33.98;99828.44;67548;1281;1016359;-61
2023/03/01 13:09:10;;;;;;;33.80;15.60;;;;;;;12.44;33.49;99827.74;67606;1282;1016453;-60
2023/03/01 13:12:12;;;;;;;35.50;15.70;;;;;;;12.42;33.98;99823.11;67604;1282;1016397;-60
2023/03/01 13:15:14;;;;;;;33.10;15.00;;;;;;;12.56;33.31;99820.77;67543;1281;1017384;-60
2023/03/01 13:18:19;;;;;;;33.70;14.50;;;;;;;12.78;33.42;99818.40;67550;1281;1016128;-61
2023/03/01 13:21:21;;;;;;;35.20;16.30;;;;;;;12.93;32.66;99816.70;67540;1282;1016176;-61
2023/03/01 13:24:24;;;;;;;33.30;15.30;;;;;;;13.23;32.84;99809.40;67548;1282;1016210;-61
2023/03/01 13:27:29;;;;;;;30.50;14.20;;;;;;;13.18;33.08;99806.85;67608;1282;1016286;-61
2023/03/01 13:30:31;;;;;;;31.60;14.70;;;;;;;13.15;32.33;99804.23;67546;1282;1016478;-60
2023/03/01 13:33:34;;;;;;;32.90;13.90;;;;;;;13.26;32.07;99804.32;67568;1282;1016328;-60
2023/03/01 13:36:36;;;;;;;35.40;14.90;;;;;;;13.09;31.71;99806.33;67587;1282;1016505;-60
2023/03/01 13:39:39;;;;;;;32.30;14.80;;;;;;;13.14;32.88;99809.95;67575;1282;1016411;-60
2023/03/01 13:42:41;;;;;;;31.00;13.90;;;;;;;13.18;32.32;99808.80;67564;1282;1016403;-61